sensor_id;sensor_type;location;lat;lon;timestamp;P1;durP1;ratioP1;P2;durP2;ratioP2
60318;SDS011;46163;52.306;5.634;2022-07-09T00:02:12;0.45;;;0.45;;
60318;SDS011;46163;52.306;5.634;2022-07-09T00:04:37;0.55;;;0.50;;
60318;SDS011;46163;52.306;5.634;2022-07-09T00:07:03;0.43;;;0.43;;
60318;SDS011;46163;52.306;5.634;2022-07-09T00:09:28;0.30;;;0.30;;
60318;SDS011;46163;52.306;5.634;2022-07-09T00:11:54;0.57;;;0.57;;
60318;SDS011;46163;52.306;5.634;2022-07-09T00:14:19;0.38;;;0.38;;
60318;SDS011;46163;52.306;5.634;2022-07-09T00:16:45;0.43;;;0.43;;
60318;SDS011;46163;52.306;5.634;2022-07-09T00:19:10;0.50;;;0.50;;
60318;SDS011;46163;52.306;5.634;2022-07-09T00:21:35;1.45;;;0.50;;
60318;SDS011;46163;52.306;5.634;2022-07-09T00:24:01;0.50;;;0.50;;
60318;SDS011;46163;52.306;5.634;2022-07-09T00:26:26;0.80;;;0.45;;
60318;SDS011;46163;52.306;5.634;2022-07-09T00:28:51;0.50;;;0.50;;
60318;SDS011;46163;52.306;5.634;2022-07-09T00:31:17;0.57;;;0.50;;
60318;SDS011;46163;52.306;5.634;2022-07-09T00:33:42;0.57;;;0.57;;
60318;SDS011;46163;52.306;5.634;2022-07-09T00:36:07;0.45;;;0.40;;
60318;SDS011;46163;52.306;5.634;2022-07-09T00:38:33;2.05;;;1.08;;
60318;SDS011;46163;52.306;5.634;2022-07-09T00:40:58;0.35;;;0.35;;
60318;SDS011;46163;52.306;5.634;2022-07-09T00:43:24;0.40;;;0.40;;
60318;SDS011;46163;52.306;5.634;2022-07-09T00:45:49;0.45;;;0.32;;
60318;SDS011;46163;52.306;5.634;2022-07-09T00:48:15;0.57;;;0.57;;
60318;SDS011;46163;52.306;5.634;2022-07-09T00:50:42;0.60;;;0.60;;
60318;SDS011;46163;52.306;5.634;2022-07-09T00:53:09;0.85;;;0.63;;
60318;SDS011;46163;52.306;5.634;2022-07-09T00:55:36;0.70;;;0.50;;
60318;SDS011;46163;52.306;5.634;2022-07-09T00:58:03;0.40;;;0.40;;
60318;SDS011;46163;52.306;5.634;2022-07-09T01:00:28;0.40;;;0.40;;
60318;SDS011;46163;52.306;5.634;2022-07-09T01:02:54;0.50;;;0.50;;
60318;SDS011;46163;52.306;5.634;2022-07-09T01:05:20;0.50;;;0.50;;
60318;SDS011;46163;52.306;5.634;2022-07-09T01:07:46;0.50;;;0.50;;
60318;SDS011;46163;52.306;5.634;2022-07-09T01:10:12;0.40;;;0.40;;
60318;SDS011;46163;52.306;5.634;2022-07-09T01:12:37;0.50;;;0.50;;
60318;SDS011;46163;52.306;5.634;2022-07-09T01:15:03;0.47;;;0.47;;
60318;SDS011;46163;52.306;5.634;2022-07-09T01:17:36;0.43;;;0.43;;
60318;SDS011;46163;52.306;5.634;2022-07-09T01:20:02;0.50;;;0.50;;
60318;SDS011;46163;52.306;5.634;2022-07-09T01:22:29;0.50;;;0.50;;
60318;SDS011;46163;52.306;5.634;2022-07-09T01:24:54;0.50;;;0.50;;
60318;SDS011;46163;52.306;5.634;2022-07-09T01:27:21;0.60;;;0.50;;
60318;SDS011;46163;52.306;5.634;2022-07-09T01:29:47;0.75;;;0.75;;
60318;SDS011;46163;52.306;5.634;2022-07-09T01:32:14;0.77;;;0.77;;
60318;SDS011;46163;52.306;5.634;2022-07-09T01:34:40;0.38;;;0.38;;
60318;SDS011;46163;52.306;5.634;2022-07-09T01:37:06;0.50;;;0.50;;
60318;SDS011;46163;52.306;5.634;2022-07-09T01:39:31;0.57;;;0.57;;
60318;SDS011;46163;52.306;5.634;2022-07-09T01:41:56;0.40;;;0.40;;
60318;SDS011;46163;52.306;5.634;2022-07-09T01:44:23;0.60;;;0.60;;
60318;SDS011;46163;52.306;5.634;2022-07-09T01:46:48;0.50;;;0.50;;
60318;SDS011;46163;52.306;5.634;2022-07-09T01:49:14;0.40;;;0.40;;
60318;SDS011;46163;52.306;5.634;2022-07-09T01:51:39;0.50;;;0.50;;
60318;SDS011;46163;52.306;5.634;2022-07-09T01:54:05;0.40;;;0.40;;
60318;SDS011;46163;52.306;5.634;2022-07-09T01:56:30;0.45;;;0.45;;
60318;SDS011;46163;52.306;5.634;2022-07-09T01:58:56;0.45;;;0.45;;
60318;SDS011;46163;52.306;5.634;2022-07-09T02:01:21;0.65;;;0.40;;
60318;SDS011;46163;52.306;5.634;2022-07-09T02:03:47;0.50;;;0.50;;
60318;SDS011;46163;52.306;5.634;2022-07-09T02:06:12;0.40;;;0.40;;
60318;SDS011;46163;52.306;5.634;2022-07-09T02:08:38;0.55;;;0.55;;
60318;SDS011;46163;52.306;5.634;2022-07-09T02:11:04;0.50;;;0.50;;
60318;SDS011;46163;52.306;5.634;2022-07-09T02:13:30;0.57;;;0.57;;
60318;SDS011;46163;52.306;5.634;2022-07-09T02:15:56;0.60;;;0.60;;
60318;SDS011;46163;52.306;5.634;2022-07-09T02:18:21;0.43;;;0.43;;
60318;SDS011;46163;52.306;5.634;2022-07-09T02:20:46;0.45;;;0.45;;
60318;SDS011;46163;52.306;5.634;2022-07-09T02:23:12;0.60;;;0.60;;
60318;SDS011;46163;52.306;5.634;2022-07-09T02:25:37;0.50;;;0.50;;
60318;SDS011;46163;52.306;5.634;2022-07-09T02:28:03;0.68;;;0.68;;
60318;SDS011;46163;52.306;5.634;2022-07-09T02:30:28;0.68;;;0.68;;
60318;SDS011;46163;52.306;5.634;2022-07-09T02:32:53;0.40;;;0.40;;
60318;SDS011;46163;52.306;5.634;2022-07-09T02:35:19;0.57;;;0.57;;
60318;SDS011;46163;52.306;5.634;2022-07-09T02:37:44;0.60;;;0.60;;
60318;SDS011;46163;52.306;5.634;2022-07-09T02:40:10;0.60;;;0.60;;
60318;SDS011;46163;52.306;5.634;2022-07-09T02:42:35;0.55;;;0.55;;
60318;SDS011;46163;52.306;5.634;2022-07-09T02:45:02;1.73;;;0.50;;
60318;SDS011;46163;52.306;5.634;2022-07-09T02:47:28;0.50;;;0.50;;
60318;SDS011;46163;52.306;5.634;2022-07-09T02:49:53;0.70;;;0.70;;
60318;SDS011;46163;52.306;5.634;2022-07-09T02:52:19;0.60;;;0.60;;
60318;SDS011;46163;52.306;5.634;2022-07-09T02:54:44;0.50;;;0.50;;
60318;SDS011;46163;52.306;5.634;2022-07-09T02:57:09;0.40;;;0.40;;
60318;SDS011;46163;52.306;5.634;2022-07-09T02:59:35;0.55;;;0.55;;
60318;SDS011;46163;52.306;5.634;2022-07-09T03:02:00;0.50;;;0.50;;
60318;SDS011;46163;52.306;5.634;2022-07-09T03:04:26;0.63;;;0.63;;
60318;SDS011;46163;52.306;5.634;2022-07-09T03:06:51;0.50;;;0.50;;
60318;SDS011;46163;52.306;5.634;2022-07-09T03:09:17;0.40;;;0.40;;
60318;SDS011;46163;52.306;5.634;2022-07-09T03:11:42;0.63;;;0.63;;
60318;SDS011;46163;52.306;5.634;2022-07-09T03:14:07;0.40;;;0.40;;
60318;SDS011;46163;52.306;5.634;2022-07-09T03:16:33;0.40;;;0.40;;
60318;SDS011;46163;52.306;5.634;2022-07-09T03:18:58;0.47;;;0.47;;
60318;SDS011;46163;52.306;5.634;2022-07-09T03:21:24;0.60;;;0.60;;
60318;SDS011;46163;52.306;5.634;2022-07-09T03:23:49;0.60;;;0.60;;
60318;SDS011;46163;52.306;5.634;2022-07-09T03:26:14;0.50;;;0.50;;
60318;SDS011;46163;52.306;5.634;2022-07-09T03:28:40;0.60;;;0.60;;
60318;SDS011;46163;52.306;5.634;2022-07-09T03:31:05;0.68;;;0.40;;
60318;SDS011;46163;52.306;5.634;2022-07-09T03:33:31;0.70;;;0.70;;
60318;SDS011;46163;52.306;5.634;2022-07-09T03:35:56;0.60;;;0.60;;
60318;SDS011;46163;52.306;5.634;2022-07-09T03:38:22;0.57;;;0.57;;
60318;SDS011;46163;52.306;5.634;2022-07-09T03:40:48;0.73;;;0.73;;
60318;SDS011;46163;52.306;5.634;2022-07-09T03:43:13;0.70;;;0.70;;
60318;SDS011;46163;52.306;5.634;2022-07-09T03:45:39;0.50;;;0.50;;
60318;SDS011;46163;52.306;5.634;2022-07-09T03:48:04;0.50;;;0.50;;
60318;SDS011;46163;52.306;5.634;2022-07-09T03:50:30;0.43;;;0.43;;
60318;SDS011;46163;52.306;5.634;2022-07-09T03:52:56;0.40;;;0.40;;
60318;SDS011;46163;52.306;5.634;2022-07-09T03:55:22;0.60;;;0.60;;
60318;SDS011;46163;52.306;5.634;2022-07-09T03:57:49;0.43;;;0.43;;
60318;SDS011;46163;52.306;5.634;2022-07-09T04:00:15;0.75;;;0.75;;
60318;SDS011;46163;52.306;5.634;2022-07-09T04:02:40;0.77;;;0.68;;
60318;SDS011;46163;52.306;5.634;2022-07-09T04:05:06;0.52;;;0.52;;
60318;SDS011;46163;52.306;5.634;2022-07-09T04:07:32;0.50;;;0.50;;
60318;SDS011;46163;52.306;5.634;2022-07-09T04:09:58;0.70;;;0.70;;
60318;SDS011;46163;52.306;5.634;2022-07-09T04:12:23;0.47;;;0.47;;
60318;SDS011;46163;52.306;5.634;2022-07-09T04:14:49;0.30;;;0.30;;
60318;SDS011;46163;52.306;5.634;2022-07-09T04:17:14;0.55;;;0.55;;
60318;SDS011;46163;52.306;5.634;2022-07-09T04:19:39;0.70;;;0.70;;
60318;SDS011;46163;52.306;5.634;2022-07-09T04:22:05;0.70;;;0.70;;
60318;SDS011;46163;52.306;5.634;2022-07-09T04:24:30;0.68;;;0.50;;
60318;SDS011;46163;52.306;5.634;2022-07-09T04:26:55;0.40;;;0.40;;
60318;SDS011;46163;52.306;5.634;2022-07-09T04:29:21;0.40;;;0.40;;
60318;SDS011;46163;52.306;5.634;2022-07-09T04:31:46;0.82;;;0.82;;
60318;SDS011;46163;52.306;5.634;2022-07-09T04:34:12;0.50;;;0.50;;
60318;SDS011;46163;52.306;5.634;2022-07-09T04:36:37;1.35;;;0.65;;
60318;SDS011;46163;52.306;5.634;2022-07-09T04:39:03;0.60;;;0.60;;
60318;SDS011;46163;52.306;5.634;2022-07-09T04:41:28;0.50;;;0.50;;
60318;SDS011;46163;52.306;5.634;2022-07-09T04:43:54;0.70;;;0.70;;
60318;SDS011;46163;52.306;5.634;2022-07-09T04:46:20;0.60;;;0.60;;
60318;SDS011;46163;52.306;5.634;2022-07-09T04:48:50;0.63;;;0.63;;
60318;SDS011;46163;52.306;5.634;2022-07-09T04:51:15;0.50;;;0.50;;
60318;SDS011;46163;52.306;5.634;2022-07-09T04:53:40;0.65;;;0.60;;
60318;SDS011;46163;52.306;5.634;2022-07-09T04:56:06;0.50;;;0.50;;
60318;SDS011;46163;52.306;5.634;2022-07-09T04:58:32;0.45;;;0.45;;
60318;SDS011;46163;52.306;5.634;2022-07-09T05:00:58;0.55;;;0.50;;
60318;SDS011;46163;52.306;5.634;2022-07-09T05:03:24;0.60;;;0.60;;
60318;SDS011;46163;52.306;5.634;2022-07-09T05:05:50;0.80;;;0.80;;
60318;SDS011;46163;52.306;5.634;2022-07-09T05:08:18;0.52;;;0.52;;
60318;SDS011;46163;52.306;5.634;2022-07-09T05:10:43;0.52;;;0.52;;
60318;SDS011;46163;52.306;5.634;2022-07-09T05:13:09;0.60;;;0.60;;
60318;SDS011;46163;52.306;5.634;2022-07-09T05:15:35;0.73;;;0.73;;
60318;SDS011;46163;52.306;5.634;2022-07-09T05:18:00;0.40;;;0.40;;
60318;SDS011;46163;52.306;5.634;2022-07-09T05:20:26;0.50;;;0.50;;
60318;SDS011;46163;52.306;5.634;2022-07-09T05:22:51;0.38;;;0.38;;
60318;SDS011;46163;52.306;5.634;2022-07-09T05:25:17;0.40;;;0.40;;
60318;SDS011;46163;52.306;5.634;2022-07-09T05:27:43;0.70;;;0.70;;
60318;SDS011;46163;52.306;5.634;2022-07-09T05:30:10;0.63;;;0.63;;
60318;SDS011;46163;52.306;5.634;2022-07-09T05:32:39;0.70;;;0.70;;
60318;SDS011;46163;52.306;5.634;2022-07-09T05:35:04;0.57;;;0.57;;
60318;SDS011;46163;52.306;5.634;2022-07-09T05:37:30;0.75;;;0.75;;
60318;SDS011;46163;52.306;5.634;2022-07-09T05:39:58;0.70;;;0.70;;
60318;SDS011;46163;52.306;5.634;2022-07-09T05:42:25;0.70;;;0.70;;
60318;SDS011;46163;52.306;5.634;2022-07-09T05:44:50;0.60;;;0.60;;
60318;SDS011;46163;52.306;5.634;2022-07-09T05:47:16;0.50;;;0.50;;
60318;SDS011;46163;52.306;5.634;2022-07-09T05:49:41;0.57;;;0.57;;
60318;SDS011;46163;52.306;5.634;2022-07-09T05:52:07;0.60;;;0.60;;
60318;SDS011;46163;52.306;5.634;2022-07-09T05:54:32;0.65;;;0.65;;
60318;SDS011;46163;52.306;5.634;2022-07-09T05:56:58;0.60;;;0.60;;
60318;SDS011;46163;52.306;5.634;2022-07-09T05:59:23;0.52;;;0.52;;
60318;SDS011;46163;52.306;5.634;2022-07-09T06:01:48;0.63;;;0.63;;
60318;SDS011;46163;52.306;5.634;2022-07-09T06:04:14;0.50;;;0.50;;
60318;SDS011;46163;52.306;5.634;2022-07-09T06:06:39;0.65;;;0.65;;
60318;SDS011;46163;52.306;5.634;2022-07-09T06:09:04;0.57;;;0.57;;
60318;SDS011;46163;52.306;5.634;2022-07-09T06:11:30;0.82;;;0.82;;
60318;SDS011;46163;52.306;5.634;2022-07-09T06:13:55;0.40;;;0.40;;
60318;SDS011;46163;52.306;5.634;2022-07-09T06:16:21;0.77;;;0.77;;
60318;SDS011;46163;52.306;5.634;2022-07-09T06:18:46;0.60;;;0.60;;
60318;SDS011;46163;52.306;5.634;2022-07-09T06:21:11;0.75;;;0.75;;
60318;SDS011;46163;52.306;5.634;2022-07-09T06:23:37;0.70;;;0.70;;
60318;SDS011;46163;52.306;5.634;2022-07-09T06:26:02;0.70;;;0.70;;
60318;SDS011;46163;52.306;5.634;2022-07-09T06:28:28;0.60;;;0.60;;
60318;SDS011;46163;52.306;5.634;2022-07-09T06:30:53;0.77;;;0.77;;
60318;SDS011;46163;52.306;5.634;2022-07-09T06:33:19;0.55;;;0.55;;
60318;SDS011;46163;52.306;5.634;2022-07-09T06:35:44;0.75;;;0.75;;
60318;SDS011;46163;52.306;5.634;2022-07-09T06:38:10;0.52;;;0.52;;
60318;SDS011;46163;52.306;5.634;2022-07-09T06:40:35;0.75;;;0.75;;
60318;SDS011;46163;52.306;5.634;2022-07-09T06:43:00;0.52;;;0.52;;
60318;SDS011;46163;52.306;5.634;2022-07-09T06:45:26;0.77;;;0.77;;
60318;SDS011;46163;52.306;5.634;2022-07-09T06:47:51;0.80;;;0.80;;
60318;SDS011;46163;52.306;5.634;2022-07-09T06:50:18;0.68;;;0.68;;
60318;SDS011;46163;52.306;5.634;2022-07-09T06:52:43;0.80;;;0.80;;
60318;SDS011;46163;52.306;5.634;2022-07-09T06:55:09;0.50;;;0.50;;
60318;SDS011;46163;52.306;5.634;2022-07-09T06:57:35;0.82;;;0.82;;
60318;SDS011;46163;52.306;5.634;2022-07-09T07:00:01;0.57;;;0.57;;
60318;SDS011;46163;52.306;5.634;2022-07-09T07:02:28;0.70;;;0.70;;
60318;SDS011;46163;52.306;5.634;2022-07-09T07:04:54;0.65;;;0.65;;
60318;SDS011;46163;52.306;5.634;2022-07-09T07:07:19;0.77;;;0.77;;
60318;SDS011;46163;52.306;5.634;2022-07-09T07:09:45;0.70;;;0.70;;
60318;SDS011;46163;52.306;5.634;2022-07-09T07:12:10;0.68;;;0.68;;
60318;SDS011;46163;52.306;5.634;2022-07-09T07:14:36;0.80;;;0.80;;
60318;SDS011;46163;52.306;5.634;2022-07-09T07:17:01;0.45;;;0.45;;
60318;SDS011;46163;52.306;5.634;2022-07-09T07:19:27;0.93;;;0.93;;
60318;SDS011;46163;52.306;5.634;2022-07-09T07:21:53;0.80;;;0.80;;
60318;SDS011;46163;52.306;5.634;2022-07-09T07:24:19;0.70;;;0.70;;
60318;SDS011;46163;52.306;5.634;2022-07-09T07:26:44;0.65;;;0.65;;
60318;SDS011;46163;52.306;5.634;2022-07-09T07:29:10;1.75;;;0.80;;
60318;SDS011;46163;52.306;5.634;2022-07-09T07:31:35;0.60;;;0.60;;
60318;SDS011;46163;52.306;5.634;2022-07-09T07:34:00;0.50;;;0.50;;
60318;SDS011;46163;52.306;5.634;2022-07-09T07:36:26;1.17;;;0.68;;
60318;SDS011;46163;52.306;5.634;2022-07-09T07:38:52;0.75;;;0.75;;
60318;SDS011;46163;52.306;5.634;2022-07-09T07:41:17;0.77;;;0.77;;
60318;SDS011;46163;52.306;5.634;2022-07-09T07:43:43;0.90;;;0.90;;
60318;SDS011;46163;52.306;5.634;2022-07-09T07:46:09;0.80;;;0.70;;
60318;SDS011;46163;52.306;5.634;2022-07-09T07:48:34;0.93;;;0.90;;
60318;SDS011;46163;52.306;5.634;2022-07-09T07:51:01;0.82;;;0.82;;
60318;SDS011;46163;52.306;5.634;2022-07-09T07:53:27;0.73;;;0.73;;
60318;SDS011;46163;52.306;5.634;2022-07-09T07:55:52;0.82;;;0.82;;
60318;SDS011;46163;52.306;5.634;2022-07-09T07:58:17;0.70;;;0.70;;
60318;SDS011;46163;52.306;5.634;2022-07-09T08:00:43;0.77;;;0.63;;
60318;SDS011;46163;52.306;5.634;2022-07-09T08:03:09;0.50;;;0.50;;
60318;SDS011;46163;52.306;5.634;2022-07-09T08:05:34;0.60;;;0.60;;
60318;SDS011;46163;52.306;5.634;2022-07-09T08:07:59;0.77;;;0.77;;
60318;SDS011;46163;52.306;5.634;2022-07-09T08:10:25;0.50;;;0.50;;
60318;SDS011;46163;52.306;5.634;2022-07-09T08:12:51;0.70;;;0.70;;
60318;SDS011;46163;52.306;5.634;2022-07-09T08:15:16;0.70;;;0.70;;
60318;SDS011;46163;52.306;5.634;2022-07-09T08:17:42;0.57;;;0.57;;
60318;SDS011;46163;52.306;5.634;2022-07-09T08:20:07;0.60;;;0.60;;
60318;SDS011;46163;52.306;5.634;2022-07-09T08:22:33;1.38;;;1.05;;
60318;SDS011;46163;52.306;5.634;2022-07-09T08:24:59;0.70;;;0.70;;
60318;SDS011;46163;52.306;5.634;2022-07-09T08:27:24;0.90;;;0.90;;
60318;SDS011;46163;52.306;5.634;2022-07-09T08:29:50;0.80;;;0.80;;
60318;SDS011;46163;52.306;5.634;2022-07-09T08:32:15;0.82;;;0.82;;
60318;SDS011;46163;52.306;5.634;2022-07-09T08:34:41;0.88;;;0.80;;
60318;SDS011;46163;52.306;5.634;2022-07-09T08:37:06;0.73;;;0.73;;
60318;SDS011;46163;52.306;5.634;2022-07-09T08:39:32;0.73;;;0.73;;
60318;SDS011;46163;52.306;5.634;2022-07-09T08:41:58;0.93;;;0.90;;
60318;SDS011;46163;52.306;5.634;2022-07-09T08:44:26;0.80;;;0.80;;
60318;SDS011;46163;52.306;5.634;2022-07-09T08:46:55;0.75;;;0.75;;
60318;SDS011;46163;52.306;5.634;2022-07-09T08:49:24;2.38;;;0.85;;
60318;SDS011;46163;52.306;5.634;2022-07-09T08:54:17;0.98;;;0.90;;
60318;SDS011;46163;52.306;5.634;2022-07-09T08:56:45;5.38;;;1.23;;
60318;SDS011;46163;52.306;5.634;2022-07-09T08:59:10;2.15;;;0.75;;
60318;SDS011;46163;52.306;5.634;2022-07-09T09:01:36;3.85;;;1.13;;
60318;SDS011;46163;52.306;5.634;2022-07-09T09:04:01;2.92;;;1.00;;
60318;SDS011;46163;52.306;5.634;2022-07-09T09:06:27;1.60;;;0.90;;
60318;SDS011;46163;52.306;5.634;2022-07-09T09:08:55;3.35;;;1.10;;
60318;SDS011;46163;52.306;5.634;2022-07-09T09:11:21;1.13;;;1.00;;
60318;SDS011;46163;52.306;5.634;2022-07-09T09:13:49;1.33;;;0.80;;
60318;SDS011;46163;52.306;5.634;2022-07-09T09:16:16;0.93;;;0.93;;
60318;SDS011;46163;52.306;5.634;2022-07-09T09:18:44;1.73;;;1.00;;
60318;SDS011;46163;52.306;5.634;2022-07-09T09:21:13;3.60;;;1.20;;
60318;SDS011;46163;52.306;5.634;2022-07-09T09:23:41;0.80;;;0.80;;
60318;SDS011;46163;52.306;5.634;2022-07-09T09:26:14;4.53;;;1.02;;
60318;SDS011;46163;52.306;5.634;2022-07-09T09:31:24;0.98;;;0.98;;
60318;SDS011;46163;52.306;5.634;2022-07-09T09:33:56;1.20;;;1.00;;
60318;SDS011;46163;52.306;5.634;2022-07-09T09:36:27;1.08;;;0.95;;
60318;SDS011;46163;52.306;5.634;2022-07-09T09:38:53;1.15;;;1.08;;
60318;SDS011;46163;52.306;5.634;2022-07-09T09:41:24;1.20;;;1.10;;
60318;SDS011;46163;52.306;5.634;2022-07-09T09:43:50;1.85;;;0.90;;
60318;SDS011;46163;52.306;5.634;2022-07-09T09:46:21;4.50;;;1.20;;
60318;SDS011;46163;52.306;5.634;2022-07-09T09:48:48;1.75;;;0.80;;
60318;SDS011;46163;52.306;5.634;2022-07-09T09:51:15;0.90;;;0.90;;
60318;SDS011;46163;52.306;5.634;2022-07-09T09:53:45;0.95;;;0.95;;
60318;SDS011;46163;52.306;5.634;2022-07-09T09:56:11;1.27;;;1.10;;
60318;SDS011;46163;52.306;5.634;2022-07-09T09:58:37;1.73;;;1.20;;
60318;SDS011;46163;52.306;5.634;2022-07-09T10:01:03;2.40;;;0.85;;
60318;SDS011;46163;52.306;5.634;2022-07-09T10:03:29;0.88;;;0.88;;
60318;SDS011;46163;52.306;5.634;2022-07-09T10:05:55;4.88;;;1.40;;
60318;SDS011;46163;52.306;5.634;2022-07-09T10:08:24;3.17;;;1.10;;
60318;SDS011;46163;52.306;5.634;2022-07-09T10:10:50;1.00;;;1.00;;
60318;SDS011;46163;52.306;5.634;2022-07-09T10:13:20;2.10;;;1.17;;
60318;SDS011;46163;52.306;5.634;2022-07-09T10:15:48;1.90;;;0.80;;
60318;SDS011;46163;52.306;5.634;2022-07-09T10:18:17;1.85;;;0.98;;
60318;SDS011;46163;52.306;5.634;2022-07-09T10:20:43;0.80;;;0.80;;
60318;SDS011;46163;52.306;5.634;2022-07-09T10:23:09;4.00;;;1.50;;
60318;SDS011;46163;52.306;5.634;2022-07-09T10:25:53;2.65;;;1.40;;
60318;SDS011;46163;52.306;5.634;2022-07-09T10:28:21;1.95;;;1.42;;
60318;SDS011;46163;52.306;5.634;2022-07-09T10:30:47;2.40;;;2.00;;
60318;SDS011;46163;52.306;5.634;2022-07-09T10:33:13;3.42;;;2.13;;
60318;SDS011;46163;52.306;5.634;2022-07-09T10:35:48;4.07;;;2.53;;
60318;SDS011;46163;52.306;5.634;2022-07-09T10:38:19;4.60;;;3.25;;
60318;SDS011;46163;52.306;5.634;2022-07-09T10:40:58;4.22;;;2.92;;
60318;SDS011;46163;52.306;5.634;2022-07-09T10:43:37;4.80;;;2.97;;
60318;SDS011;46163;52.306;5.634;2022-07-09T10:46:13;4.22;;;2.72;;
60318;SDS011;46163;52.306;5.634;2022-07-09T10:48:45;11.75;;;3.50;;
60318;SDS011;46163;52.306;5.634;2022-07-09T10:51:22;6.40;;;2.85;;
60318;SDS011;46163;52.306;5.634;2022-07-09T10:53:48;27.65;;;3.00;;
60318;SDS011;46163;52.306;5.634;2022-07-09T10:56:20;8.75;;;2.90;;
60318;SDS011;46163;52.306;5.634;2022-07-09T11:08:38;6.38;;;2.38;;
60318;SDS011;46163;52.306;5.634;2022-07-09T11:11:04;3.70;;;2.28;;
60318;SDS011;46163;52.306;5.634;2022-07-09T11:13:35;5.18;;;2.40;;
60318;SDS011;46163;52.306;5.634;2022-07-09T11:16:01;3.72;;;2.17;;
60318;SDS011;46163;52.306;5.634;2022-07-09T11:18:27;3.72;;;2.20;;
60318;SDS011;46163;52.306;5.634;2022-07-09T11:20:53;2.55;;;2.10;;
60318;SDS011;46163;52.306;5.634;2022-07-09T11:23:18;7.30;;;2.25;;
60318;SDS011;46163;52.306;5.634;2022-07-09T11:25:44;3.47;;;2.10;;
60318;SDS011;46163;52.306;5.634;2022-07-09T11:28:18;8.73;;;2.33;;
60318;SDS011;46163;52.306;5.634;2022-07-09T11:33:44;2.60;;;1.95;;
60318;SDS011;46163;52.306;5.634;2022-07-09T11:36:35;7.78;;;2.10;;
60318;SDS011;46163;52.306;5.634;2022-07-09T11:39:04;2.47;;;1.97;;
60318;SDS011;46163;52.306;5.634;2022-07-09T11:41:40;2.60;;;1.83;;
60318;SDS011;46163;52.306;5.634;2022-07-09T11:44:09;5.55;;;2.00;;
60318;SDS011;46163;52.306;5.634;2022-07-09T11:49:02;9.00;;;2.10;;
60318;SDS011;46163;52.306;5.634;2022-07-09T11:51:51;7.00;;;2.00;;
60318;SDS011;46163;52.306;5.634;2022-07-09T11:54:25;9.75;;;2.17;;
60318;SDS011;46163;52.306;5.634;2022-07-09T11:56:51;5.80;;;2.10;;
60318;SDS011;46163;52.306;5.634;2022-07-09T11:59:31;9.43;;;1.92;;
60318;SDS011;46163;52.306;5.634;2022-07-09T12:02:06;4.32;;;1.95;;
60318;SDS011;46163;52.306;5.634;2022-07-09T12:04:36;2.70;;;1.70;;
60318;SDS011;46163;52.306;5.634;2022-07-09T12:07:09;2.45;;;1.52;;
60318;SDS011;46163;52.306;5.634;2022-07-09T12:09:34;4.70;;;1.70;;
60318;SDS011;46163;52.306;5.634;2022-07-09T12:12:00;3.15;;;1.70;;
60318;SDS011;46163;52.306;5.634;2022-07-09T12:14:25;2.55;;;1.67;;
60318;SDS011;46163;52.306;5.634;2022-07-09T12:16:51;7.95;;;2.00;;
60318;SDS011;46163;52.306;5.634;2022-07-09T12:19:16;2.55;;;1.60;;
60318;SDS011;46163;52.306;5.634;2022-07-09T12:21:42;3.35;;;1.65;;
60318;SDS011;46163;52.306;5.634;2022-07-09T12:24:07;5.32;;;1.40;;
60318;SDS011;46163;52.306;5.634;2022-07-09T12:26:33;2.25;;;1.50;;
60318;SDS011;46163;52.306;5.634;2022-07-09T12:28:58;3.47;;;1.40;;
60318;SDS011;46163;52.306;5.634;2022-07-09T12:31:24;1.92;;;1.30;;
60318;SDS011;46163;52.306;5.634;2022-07-09T12:33:49;1.55;;;1.45;;
60318;SDS011;46163;52.306;5.634;2022-07-09T12:36:14;4.32;;;1.60;;
60318;SDS011;46163;52.306;5.634;2022-07-09T12:38:41;3.10;;;1.20;;
60318;SDS011;46163;52.306;5.634;2022-07-09T12:41:07;2.25;;;1.40;;
60318;SDS011;46163;52.306;5.634;2022-07-09T12:43:33;2.80;;;1.30;;
60318;SDS011;46163;52.306;5.634;2022-07-09T12:46:09;1.95;;;1.10;;
60318;SDS011;46163;52.306;5.634;2022-07-09T12:48:34;6.63;;;1.55;;
60318;SDS011;46163;52.306;5.634;2022-07-09T12:51:00;3.47;;;1.40;;
60318;SDS011;46163;52.306;5.634;2022-07-09T12:53:25;4.43;;;1.55;;
60318;SDS011;46163;52.306;5.634;2022-07-09T12:56:02;3.63;;;1.60;;
60318;SDS011;46163;52.306;5.634;2022-07-09T12:58:28;4.75;;;1.40;;
60318;SDS011;46163;52.306;5.634;2022-07-09T13:00:54;3.65;;;1.33;;
60318;SDS011;46163;52.306;5.634;2022-07-09T13:03:19;6.05;;;1.65;;
60318;SDS011;46163;52.306;5.634;2022-07-09T13:05:44;5.07;;;1.50;;
60318;SDS011;46163;52.306;5.634;2022-07-09T13:08:10;4.00;;;1.48;;
60318;SDS011;46163;52.306;5.634;2022-07-09T13:10:35;4.45;;;1.40;;
60318;SDS011;46163;52.306;5.634;2022-07-09T13:13:00;2.88;;;1.80;;
60318;SDS011;46163;52.306;5.634;2022-07-09T13:15:27;2.70;;;1.30;;
60318;SDS011;46163;52.306;5.634;2022-07-09T13:17:52;2.80;;;1.45;;
60318;SDS011;46163;52.306;5.634;2022-07-09T13:20:19;2.17;;;1.30;;
60318;SDS011;46163;52.306;5.634;2022-07-09T13:22:45;3.05;;;1.35;;
60318;SDS011;46163;52.306;5.634;2022-07-09T13:25:10;3.30;;;1.35;;
60318;SDS011;46163;52.306;5.634;2022-07-09T13:27:35;3.70;;;1.48;;
60318;SDS011;46163;52.306;5.634;2022-07-09T13:30:01;3.47;;;1.67;;
60318;SDS011;46163;52.306;5.634;2022-07-09T13:32:27;2.30;;;1.35;;
60318;SDS011;46163;52.306;5.634;2022-07-09T13:34:52;1.92;;;1.40;;
60318;SDS011;46163;52.306;5.634;2022-07-09T13:37:18;4.97;;;1.33;;
60318;SDS011;46163;52.306;5.634;2022-07-09T13:39:44;2.53;;;1.42;;
60318;SDS011;46163;52.306;5.634;2022-07-09T13:42:09;2.40;;;1.33;;
60318;SDS011;46163;52.306;5.634;2022-07-09T13:44:35;3.45;;;1.40;;
60318;SDS011;46163;52.306;5.634;2022-07-09T13:47:00;1.88;;;1.25;;
60318;SDS011;46163;52.306;5.634;2022-07-09T13:49:26;2.60;;;1.30;;
60318;SDS011;46163;52.306;5.634;2022-07-09T13:51:51;2.83;;;1.35;;
60318;SDS011;46163;52.306;5.634;2022-07-09T13:54:16;3.10;;;1.70;;
60318;SDS011;46163;52.306;5.634;2022-07-09T13:56:42;10.63;;;1.40;;
60318;SDS011;46163;52.306;5.634;2022-07-09T13:59:08;4.20;;;1.23;;
60318;SDS011;46163;52.306;5.634;2022-07-09T14:01:33;2.58;;;1.10;;
60318;SDS011;46163;52.306;5.634;2022-07-09T14:03:59;2.15;;;1.10;;
60318;SDS011;46163;52.306;5.634;2022-07-09T14:06:24;1.60;;;1.30;;
60318;SDS011;46163;52.306;5.634;2022-07-09T14:08:50;2.78;;;1.00;;
60318;SDS011;46163;52.306;5.634;2022-07-09T14:11:16;2.85;;;1.10;;
60318;SDS011;46163;52.306;5.634;2022-07-09T14:13:41;1.77;;;1.15;;
60318;SDS011;46163;52.306;5.634;2022-07-09T14:16:08;1.90;;;1.33;;
60318;SDS011;46163;52.306;5.634;2022-07-09T14:18:34;3.00;;;1.27;;
60318;SDS011;46163;52.306;5.634;2022-07-09T14:20:59;2.00;;;1.00;;
60318;SDS011;46163;52.306;5.634;2022-07-09T14:23:24;1.67;;;1.05;;
60318;SDS011;46163;52.306;5.634;2022-07-09T14:25:50;1.17;;;1.08;;
60318;SDS011;46163;52.306;5.634;2022-07-09T14:28:15;6.30;;;1.25;;
60318;SDS011;46163;52.306;5.634;2022-07-09T14:30:41;3.78;;;1.15;;
60318;SDS011;46163;52.306;5.634;2022-07-09T14:33:06;1.60;;;0.90;;
60318;SDS011;46163;52.306;5.634;2022-07-09T14:35:32;2.55;;;1.00;;
60318;SDS011;46163;52.306;5.634;2022-07-09T14:37:58;1.70;;;1.05;;
60318;SDS011;46163;52.306;5.634;2022-07-09T14:40:23;0.77;;;0.77;;
60318;SDS011;46163;52.306;5.634;2022-07-09T14:42:49;3.05;;;1.10;;
60318;SDS011;46163;52.306;5.634;2022-07-09T14:45:15;1.23;;;0.77;;
60318;SDS011;46163;52.306;5.634;2022-07-09T14:47:40;0.88;;;0.85;;
60318;SDS011;46163;52.306;5.634;2022-07-09T14:50:06;1.30;;;1.10;;
60318;SDS011;46163;52.306;5.634;2022-07-09T14:52:31;1.08;;;0.80;;
60318;SDS011;46163;52.306;5.634;2022-07-09T15:01:44;1.75;;;1.05;;
60318;SDS011;46163;52.306;5.634;2022-07-09T15:04:10;5.15;;;1.15;;
60318;SDS011;46163;52.306;5.634;2022-07-09T15:06:35;5.78;;;1.13;;
60318;SDS011;46163;52.306;5.634;2022-07-09T15:09:01;1.60;;;0.90;;
60318;SDS011;46163;52.306;5.634;2022-07-09T15:11:26;2.47;;;0.82;;